Time;durP1;ratioP1;P1;durP2;ratioP2;P2;SDS_P1;SDS_P2;PMS_P1;PMS_P2;Temp;Humidity;BMP_temperature;BMP_pressure;BME280_temperature;BME280_humidity;BME280_pressure;Samples;Min_cycle;Max_cycle;Signal;HPM_P1;HPM_P2
2022/09/23 00:01:02;;;;;;;19.77;17.83;;;10.90;99.90;;;;;;4890730;29;20067;-75
2022/09/23 00:03:30;;;;;;;20.73;18.83;;;10.90;99.90;;;;;;4899708;29;20582;-74
2022/09/23 00:06:01;;;;;;;18.98;17.13;;;10.90;99.90;;;;;;4915382;29;20131;-74
2022/09/23 00:08:28;;;;;;;19.80;18.20;;;10.90;99.90;;;;;;4903619;29;20190;-74
2022/09/23 00:10:54;;;;;;;19.00;17.20;;;10.80;99.90;;;;;;4918968;29;20688;-73
2022/09/23 00:13:22;;;;;;;20.45;18.55;;;10.80;99.90;;;;;;4901078;29;20048;-74
2022/09/23 00:15:48;;;;;;;18.13;16.45;;;10.80;99.90;;;;;;4887997;29;21278;-74
2022/09/23 00:18:14;;;;;;;18.98;17.38;;;10.80;99.90;;;;;;4923969;29;20044;-74
2022/09/23 00:20:40;;;;;;;19.02;17.42;;;10.70;99.90;;;;;;4903374;29;20450;-75
2022/09/23 00:23:06;;;;;;;20.55;18.70;;;10.70;99.90;;;;;;4896094;29;20087;-74
2022/09/23 00:25:31;;;;;;;19.75;18.05;;;10.70;99.90;;;;;;4909597;29;20542;-74
2022/09/23 00:27:57;;;;;;;19.15;17.35;;;10.70;99.90;;;;;;4915407;29;20039;-74
2022/09/23 00:30:23;;;;;;;20.45;18.65;;;10.70;99.90;;;;;;4932327;29;20047;-74
2022/09/23 00:32:51;;;;;;;18.90;17.25;;;10.60;99.90;;;;;;4909731;29;20055;-75
2022/09/23 00:35:17;;;;;;;20.92;19.10;;;10.60;99.90;;;;;;4925625;29;20148;-74
2022/09/23 00:37:43;;;;;;;19.63;17.90;;;10.60;99.90;;;;;;4905913;29;20044;-75
2022/09/23 00:40:11;;;;;;;19.35;17.60;;;10.60;99.90;;;;;;4903991;29;20043;-75
2022/09/23 00:42:36;;;;;;;19.48;17.67;;;10.60;99.90;;;;;;4889117;29;20115;-75
2022/09/23 00:45:04;;;;;;;18.60;16.73;;;10.60;99.90;;;;;;4894199;29;20047;-75
2022/09/23 00:47:50;;;;;;;19.50;17.80;;;10.60;99.90;;;;;;4895507;29;20375;-74
2022/09/23 00:50:25;;;;;;;20.10;18.40;;;10.60;99.90;;;;;;4927913;29;20518;-75
2022/09/23 00:52:55;;;;;;;18.45;16.83;;;10.60;99.90;;;;;;4899186;29;20048;-75
2022/09/23 00:55:29;;;;;;;18.05;16.45;;;10.60;99.90;;;;;;4916104;29;20104;-75
2022/09/23 00:57:57;;;;;;;18.85;17.25;;;10.60;99.90;;;;;;4901058;29;20059;-75
2022/09/23 01:00:23;;;;;;;19.15;17.52;;;10.60;99.90;;;;;;4899434;29;20528;-75
2022/09/23 01:02:50;;;;;;;20.77;18.90;;;10.60;99.90;;;;;;4912674;29;20076;-77
2022/09/23 01:05:16;;;;;;;19.13;17.42;;;10.60;99.90;;;;;;4893795;29;20499;-75
2022/09/23 01:07:43;;;;;;;18.83;17.13;;;10.60;99.90;;;;;;4911576;29;20127;-74
2022/09/23 01:10:11;;;;;;;19.73;18.13;;;10.60;99.90;;;;;;4905935;29;20050;-75
2022/09/23 01:12:39;;;;;;;20.33;18.55;;;10.50;99.90;;;;;;4901880;29;20142;-75
2022/09/23 01:15:29;;;;;;;19.30;17.65;;;10.50;99.90;;;;;;4911207;29;20052;-75
2022/09/23 01:18:03;;;;;;;21.23;19.42;;;10.50;99.90;;;;;;4894931;29;20044;-74
2022/09/23 01:21:00;;;;;;;19.00;17.42;;;10.50;99.90;;;;;;4903297;29;20086;-74
2022/09/23 01:23:44;;;;;;;19.08;17.38;;;10.50;99.90;;;;;;4918115;29;20549;-75
2022/09/23 01:26:25;;;;;;;20.52;18.70;;;10.40;99.90;;;;;;4912918;29;20047;-75
2022/09/23 01:29:28;;;;;;;22.17;20.38;;;10.40;99.90;;;;;;4913186;29;20574;-75
2022/09/23 01:32:01;;;;;;;20.00;18.40;;;10.40;99.90;;;;;;4927676;29;20402;-75
2022/09/23 01:34:48;;;;;;;20.15;18.48;;;10.40;99.90;;;;;;4921365;29;20059;-74
2022/09/23 01:37:54;;;;;;;19.10;17.52;;;10.30;99.90;;;;;;4892365;29;20128;-75
2022/09/23 01:40:29;;;;;;;20.17;18.38;;;10.30;99.90;;;;;;4904756;29;20059;-74
2022/09/23 01:43:03;;;;;;;19.08;17.55;;;10.30;99.90;;;;;;4932186;29;20577;-75
2022/09/23 01:45:37;;;;;;;20.88;19.08;;;10.20;99.90;;;;;;4916461;29;20060;-75
2022/09/23 01:48:13;;;;;;;19.52;17.92;;;10.20;99.90;;;;;;4916203;29;20055;-75
2022/09/23 01:50:55;;;;;;;20.08;18.38;;;10.20;99.90;;;;;;4926888;29;20520;-74
2022/09/23 01:53:45;;;;;;;20.13;18.52;;;10.20;99.90;;;;;;4924650;29;20185;-75
2022/09/23 01:56:26;;;;;;;20.13;18.35;;;10.20;99.90;;;;;;4928264;28;20052;-74
2022/09/23 01:59:17;;;;;;;20.15;18.45;;;10.20;99.90;;;;;;4927645;29;20102;-75
2022/09/23 02:01:54;;;;;;;19.35;17.75;;;10.20;99.90;;;;;;4925845;29;20117;-75
2022/09/23 02:04:24;;;;;;;19.83;18.08;;;10.20;99.90;;;;;;4928645;29;20405;-75
2022/09/23 02:07:09;;;;;;;20.90;19.20;;;10.20;99.90;;;;;;4907448;29;20052;-75
2022/09/23 02:09:40;;;;;;;20.17;18.38;;;10.20;99.90;;;;;;4930694;29;20092;-75
2022/09/23 02:12:11;;;;;;;20.13;18.33;;;10.20;99.90;;;;;;4923083;29;20514;-74
2022/09/23 02:14:50;;;;;;;19.77;18.08;;;10.20;99.90;;;;;;4935892;29;20122;-74
2022/09/23 02:17:47;;;;;;;19.48;17.65;;;10.20;99.90;;;;;;4929797;28;20046;-74
2022/09/23 02:20:19;;;;;;;22.40;20.30;;;10.10;99.90;;;;;;4908115;29;20052;-75
2022/09/23 02:23:06;;;;;;;21.50;19.70;;;10.10;99.90;;;;;;4924824;29;20050;-75
2022/09/23 02:26:01;;;;;;;19.20;17.50;;;10.10;99.90;;;;;;4917232;29;20417;-74
2022/09/23 02:28:49;;;;;;;19.42;17.73;;;10.10;99.90;;;;;;4915789;28;20122;-75
2022/09/23 02:31:20;;;;;;;21.35;19.65;;;10.00;99.90;;;;;;4871406;28;20048;-74
2022/09/23 02:33:55;;;;;;;20.05;18.35;;;10.10;99.90;;;;;;4930534;29;20039;-74
2022/09/23 02:36:24;;;;;;;22.83;21.02;;;10.00;99.90;;;;;;4926330;29;20142;-75
2022/09/23 02:38:59;;;;;;;20.40;18.67;;;10.00;99.90;;;;;;4924526;29;20137;-75
2022/09/23 02:41:39;;;;;;;19.13;17.42;;;9.90;99.90;;;;;;4920764;28;20410;-74
2022/09/23 02:44:16;;;;;;;19.20;17.33;;;9.90;99.90;;;;;;4946701;28;20062;-75
2022/09/23 02:46:43;;;;;;;17.30;15.80;;;9.90;99.90;;;;;;4933890;29;20071;-75
2022/09/23 02:49:21;;;;;;;18.27;16.67;;;9.90;99.90;;;;;;4918210;29;20051;-74
2022/09/23 02:51:46;;;;;;;20.38;18.77;;;9.90;99.90;;;;;;4922432;29;20106;-75
2022/09/23 02:54:16;;;;;;;18.08;16.60;;;9.90;99.90;;;;;;4930421;29;20043;-75
2022/09/23 02:56:42;;;;;;;18.35;16.75;;;9.90;99.90;;;;;;4926336;29;20057;-75
2022/09/23 02:59:09;;;;;;;17.52;16.02;;;9.90;99.90;;;;;;4905988;29;20043;-75
2022/09/23 03:01:55;;;;;;;16.92;15.50;;;9.90;99.90;;;;;;4930244;29;20501;-76
2022/09/23 03:04:50;;;;;;;19.00;17.30;;;9.90;99.90;;;;;;4936485;28;20055;-76
2022/09/23 03:07:32;;;;;;;18.45;16.90;;;9.80;99.90;;;;;;4899557;29;20131;-76
2022/09/23 03:10:14;;;;;;;19.35;17.80;;;9.80;99.90;;;;;;4927472;29;20127;-75
2022/09/23 03:13:08;;;;;;;19.50;17.90;;;9.80;99.90;;;;;;4950976;28;20075;-76
2022/09/23 03:15:50;;;;;;;20.35;18.75;;;9.80;99.90;;;;;;4917352;28;20066;-75
2022/09/23 03:18:20;;;;;;;21.50;19.80;;;9.70;99.90;;;;;;4936519;28;20053;-76
2022/09/23 03:20:54;;;;;;;18.92;16.95;;;9.70;99.90;;;;;;4909389;29;20058;-76
2022/09/23 03:23:25;;;;;;;20.70;19.05;;;9.60;99.90;;;;;;4923485;28;20066;-75
2022/09/23 03:25:54;;;;;;;22.20;20.42;;;9.60;99.90;;;;;;4925852;28;20035;-76
2022/09/23 03:28:22;;;;;;;21.30;19.60;;;9.60;99.90;;;;;;4929410;29;20126;-75
2022/09/23 03:30:51;;;;;;;21.55;19.75;;;9.60;99.90;;;;;;4912502;29;20055;-75
2022/09/23 03:33:21;;;;;;;20.20;18.40;;;9.60;99.90;;;;;;4915018;29;20403;-75
2022/09/23 03:38:52;;;;;;;23.25;21.38;;;9.50;99.90;;;;;;4927426;29;20494;-76
2022/09/23 03:41:29;;;;;;;21.50;19.75;;;9.50;99.90;;;;;;4899750;28;20043;-75
2022/09/23 03:43:57;;;;;;;24.13;22.17;;;9.50;99.90;;;;;;4926364;29;20094;-75
2022/09/23 03:46:28;;;;;;;21.15;19.38;;;9.50;99.90;;;;;;4911318;29;20462;-76
2022/09/23 03:49:04;;;;;;;22.90;21.10;;;9.40;99.90;;;;;;4934101;28;20109;-76
2022/09/23 03:51:30;;;;;;;21.30;19.60;;;9.40;99.90;;;;;;4925766;29;20097;-76
2022/09/23 03:53:56;;;;;;;21.92;20.23;;;9.40;99.90;;;;;;4907949;29;20047;-75
2022/09/23 03:56:22;;;;;;;21.85;20.17;;;9.40;99.90;;;;;;4910901;29;20050;-76
2022/09/23 03:58:48;;;;;;;22.63;20.88;;;9.40;99.90;;;;;;4933036;29;20129;-76
2022/09/23 04:01:13;;;;;;;22.83;21.10;;;9.40;99.90;;;;;;4902266;29;20130;-75
2022/09/23 04:03:40;;;;;;;23.30;21.23;;;9.40;99.90;;;;;;4921300;29;20058;-75
2022/09/23 04:06:06;;;;;;;22.05;20.40;;;9.40;99.90;;;;;;4929280;29;20516;-76
2022/09/23 04:08:32;;;;;;;22.60;20.80;;;9.40;99.90;;;;;;4915660;29;20143;-76
2022/09/23 04:11:02;;;;;;;21.40;19.75;;;9.30;99.90;;;;;;4912164;28;20450;-76
2022/09/23 04:13:28;;;;;;;;;;;9.30;99.90;;;;;;4902025;29;20054;-76
2022/09/23 04:15:57;;;;;;;23.88;21.67;;;9.30;99.90;;;;;;4921429;28;20378;-75
2022/09/23 04:18:23;;;;;;;23.63;21.42;;;9.30;99.90;;;;;;4910775;29;20047;-75
2022/09/23 04:20:49;;;;;;;25.92;23.92;;;9.30;99.90;;;;;;4924076;28;20051;-75
2022/09/23 04:23:14;;;;;;;23.85;21.95;;;9.30;99.90;;;;;;4923648;29;20178;-75
2022/09/23 04:25:47;;;;;;;22.65;20.85;;;9.30;99.90;;;;;;4918952;28;20131;-76
2022/09/23 04:28:13;;;;;;;24.10;22.20;;;9.30;99.90;;;;;;4910934;28;20044;-76
2022/09/23 04:30:42;;;;;;;22.05;20.27;;;9.20;99.90;;;;;;4900878;29;20071;-76
2022/09/23 04:33:11;;;;;;;26.42;24.17;;;9.20;99.90;;;;;;4900440;29;20099;-75
2022/09/23 04:35:37;;;;;;;23.63;21.63;;;9.30;99.90;;;;;;4916135;29;20043;-76
2022/09/23 04:38:05;;;;;;;21.70;20.08;;;9.20;99.90;;;;;;4934975;29;20150;-75
2022/09/23 04:40:31;;;;;;;23.70;21.77;;;9.20;99.90;;;;;;4943190;28;20402;-75
2022/09/23 04:42:57;;;;;;;22.42;20.60;;;9.20;99.90;;;;;;4917874;29;20043;-74
2022/09/23 04:45:23;;;;;;;24.17;22.27;;;9.20;99.90;;;;;;4902632;29;20039;-75
2022/09/23 04:47:49;;;;;;;23.65;21.85;;;9.20;99.90;;;;;;4922836;29;20601;-75
2022/09/23 04:50:15;;;;;;;25.15;23.05;;;9.10;99.90;;;;;;4904593;29;20048;-76
2022/09/23 04:52:41;;;;;;;25.80;23.70;;;9.10;99.90;;;;;;4913828;29;20055;-76
2022/09/23 04:55:07;;;;;;;25.95;23.80;;;9.20;99.90;;;;;;4912507;28;20036;-76
2022/09/23 04:57:33;;;;;;;23.48;21.52;;;9.20;99.90;;;;;;4912195;29;20457;-75
2022/09/23 05:00:00;;;;;;;24.55;22.70;;;9.20;99.90;;;;;;4920194;29;20577;-76
2022/09/23 05:02:27;;;;;;;24.25;22.33;;;9.20;99.90;;;;;;4923060;29;20058;-76
2022/09/23 05:04:54;;;;;;;24.63;22.73;;;9.10;99.90;;;;;;4917948;29;20091;-75
2022/09/23 05:07:20;;;;;;;24.42;22.50;;;9.10;99.90;;;;;;4898749;28;20043;-75
2022/09/23 05:09:46;;;;;;;24.52;22.65;;;9.10;99.90;;;;;;4939492;29;20081;-75
2022/09/23 05:12:12;;;;;;;26.02;23.88;;;9.10;99.90;;;;;;4936926;28;20486;-75
2022/09/23 05:14:38;;;;;;;25.77;23.70;;;9.10;99.90;;;;;;4890519;29;20620;-75
2022/09/23 05:17:04;;;;;;;24.73;22.88;;;9.20;99.90;;;;;;4906419;29;20055;-76
2022/09/23 05:19:30;;;;;;;27.23;24.95;;;9.10;99.90;;;;;;4929537;28;20055;-76
2022/09/23 05:21:56;;;;;;;24.45;22.25;;;9.10;99.90;;;;;;4927844;29;20394;-76
2022/09/23 05:24:23;;;;;;;25.08;23.17;;;9.10;99.90;;;;;;4921546;29;20044;-75
2022/09/23 05:26:50;;;;;;;25.17;23.17;;;9.10;99.90;;;;;;4921237;29;20055;-76
2022/09/23 05:29:16;;;;;;;25.83;23.73;;;9.00;99.90;;;;;;4913190;29;20066;-76
2022/09/23 05:31:42;;;;;;;26.15;24.15;;;9.00;99.90;;;;;;4913188;29;20098;-75
2022/09/23 05:34:08;;;;;;;22.60;20.75;;;9.00;99.90;;;;;;4910482;29;20054;-75
2022/09/23 05:36:36;;;;;;;25.60;23.45;;;9.00;99.90;;;;;;4909816;29;20134;-76
2022/09/23 05:39:03;;;;;;;24.27;22.20;;;9.00;99.90;;;;;;4925057;29;20573;-75
2022/09/23 05:41:29;;;;;;;27.85;25.58;;;9.00;99.90;;;;;;4927570;29;20090;-76
2022/09/23 05:43:55;;;;;;;24.58;22.40;;;9.00;99.90;;;;;;4897339;29;20039;-75
2022/09/23 05:46:25;;;;;;;23.90;21.90;;;9.00;99.90;;;;;;4907978;29;20061;-75
2022/09/23 05:48:51;;;;;;;24.77;22.77;;;9.00;99.90;;;;;;4925933;29;20054;-75
2022/09/23 05:51:22;;;;;;;25.52;23.42;;;9.10;99.90;;;;;;4926236;29;20414;-76
2022/09/23 05:53:52;;;;;;;24.17;22.10;;;9.10;99.90;;;;;;4914854;29;20553;-75
2022/09/23 05:56:20;;;;;;;24.88;22.98;;;9.10;99.90;;;;;;4911716;29;20031;-75
2022/09/23 05:58:51;;;;;;;24.80;22.80;;;9.10;99.90;;;;;;4914188;29;20680;-76
2022/09/23 06:01:19;;;;;;;;;;;9.10;99.90;;;;;;4915167;29;20043;-75
2022/09/23 06:03:49;;;;;;;23.85;21.95;;;9.20;99.90;;;;;;4926621;29;19931;-76
2022/09/23 06:06:17;;;;;;;24.07;21.93;;;9.20;99.90;;;;;;4909243;28;20118;-76
2022/09/23 06:08:47;;;;;;;24.52;22.42;;;9.20;99.90;;;;;;4943019;28;20590;-76
2022/09/23 06:11:14;;;;;;;24.45;22.48;;;9.30;99.90;;;;;;4924883;29;20467;-76
2022/09/23 06:13:40;;;;;;;22.63;20.85;;;9.30;99.90;;;;;;4924044;28;20809;-75
2022/09/23 06:16:12;;;;;;;25.75;23.60;;;9.30;99.90;;;;;;4925752;29;20074;-76
2022/09/23 06:18:42;;;;;;;23.20;21.15;;;9.40;99.90;;;;;;4926145;29;20039;-75
2022/09/23 06:21:18;;;;;;;26.52;24.33;;;9.40;99.90;;;;;;4927222;29;20043;-75
2022/09/23 06:23:44;;;;;;;22.95;20.98;;;9.50;99.90;;;;;;4902853;28;20057;-74
2022/09/23 06:26:12;;;;;;;22.75;20.85;;;9.50;99.90;;;;;;4914372;29;20137;-75
2022/09/23 06:28:40;;;;;;;20.95;19.15;;;9.60;99.90;;;;;;4914557;29;20042;-74
2022/09/23 06:31:09;;;;;;;22.42;20.52;;;9.60;99.90;;;;;;4916070;29;20043;-74
2022/09/23 06:33:35;;;;;;;20.80;19.10;;;9.70;99.90;;;;;;4918972;29;20137;-76
2022/09/23 06:36:04;;;;;;;22.13;20.20;;;9.70;99.90;;;;;;4901473;29;20126;-75
2022/09/23 06:38:33;;;;;;;21.75;19.95;;;9.80;99.90;;;;;;4931440;29;20050;-76
2022/09/23 06:41:00;;;;;;;21.30;19.50;;;9.80;99.90;;;;;;4927739;29;20090;-75
2022/09/23 06:43:26;;;;;;;20.48;18.85;;;9.80;99.90;;;;;;4927834;29;20046;-75
2022/09/23 06:45:57;;;;;;;24.13;22.02;;;9.80;99.90;;;;;;4924108;29;20102;-75
2022/09/23 06:48:23;;;;;;;22.42;20.45;;;9.90;99.90;;;;;;4923876;29;20059;-75
2022/09/23 06:50:50;;;;;;;21.00;19.40;;;9.90;99.90;;;;;;4935331;29;20134;-76
2022/09/23 06:53:16;;;;;;;23.02;20.92;;;10.00;99.90;;;;;;4923078;29;20363;-75
2022/09/23 06:55:42;;;;;;;20.55;18.85;;;10.00;99.90;;;;;;4915693;29;20051;-75
2022/09/23 06:58:08;;;;;;;24.02;21.90;;;10.00;99.90;;;;;;4916218;29;20525;-75
2022/09/23 07:00:37;;;;;;;21.55;19.60;;;10.00;99.90;;;;;;4912395;29;20409;-75
2022/09/23 07:03:07;;;;;;;22.00;20.15;;;10.10;99.90;;;;;;4903585;29;20059;-75
2022/09/23 07:05:33;;;;;;;22.23;20.13;;;10.00;99.90;;;;;;4932354;29;20051;-76
2022/09/23 07:07:59;;;;;;;21.42;19.48;;;10.00;99.90;;;;;;4925693;29;20068;-76
2022/09/23 07:10:28;;;;;;;21.05;19.30;;;10.10;99.90;;;;;;4922283;29;20039;-76
2022/09/23 07:12:54;;;;;;;20.92;19.23;;;10.10;99.90;;;;;;4897287;29;20050;-76
2022/09/23 07:15:20;;;;;;;19.27;17.67;;;10.10;99.90;;;;;;4891019;29;20047;-76
2022/09/23 07:17:46;;;;;;;19.73;17.95;;;10.20;99.90;;;;;;4906766;29;20047;-76
2022/09/23 07:20:23;;;;;;;20.33;18.63;;;10.20;99.90;;;;;;4912965;28;20049;-76
2022/09/23 07:22:51;;;;;;;21.33;19.45;;;10.30;99.90;;;;;;4928320;29;20051;-77
2022/09/23 07:25:21;;;;;;;20.88;18.98;;;10.30;99.90;;;;;;4926110;29;20047;-76
2022/09/23 07:27:47;;;;;;;21.35;19.65;;;10.40;99.90;;;;;;4912781;29;20328;-76
2022/09/23 07:30:14;;;;;;;21.20;19.38;;;10.40;99.90;;;;;;4929451;28;20035;-75
2022/09/23 07:32:40;;;;;;;20.23;18.52;;;10.40;99.90;;;;;;4929885;29;20158;-76
2022/09/23 07:35:07;;;;;;;21.52;19.67;;;10.40;99.90;;;;;;4907594;29;20142;-76
2022/09/23 07:37:33;;;;;;;21.80;19.88;;;10.50;99.90;;;;;;4923642;29;20039;-75
2022/09/23 07:40:02;;;;;;;20.73;18.73;;;10.50;99.90;;;;;;4913601;29;20047;-76
2022/09/23 07:42:31;;;;;;;19.98;18.20;;;10.60;99.90;;;;;;4907514;29;20128;-76
2022/09/23 07:44:57;;;;;;;21.58;19.67;;;10.60;99.90;;;;;;4901237;29;20484;-76
2022/09/23 07:47:23;;;;;;;21.02;19.33;;;10.60;99.90;;;;;;4917669;28;20046;-76
2022/09/23 07:49:48;;;;;;;18.27;16.65;;;10.70;99.90;;;;;;4929139;29;20055;-76
2022/09/23 07:52:14;;;;;;;20.80;18.70;;;10.70;99.90;;;;;;4918343;29;20368;-76
2022/09/23 07:54:40;;;;;;;20.35;18.60;;;10.80;99.90;;;;;;4898550;29;20108;-76
2022/09/23 07:57:06;;;;;;;20.52;18.83;;;10.90;99.90;;;;;;4918323;29;20058;-76
2022/09/23 07:59:31;;;;;;;20.75;19.02;;;11.00;99.90;;;;;;4903549;29;20061;-76
2022/09/23 08:01:57;;;;;;;20.33;18.52;;;11.00;99.90;;;;;;4927600;29;20043;-76
2022/09/23 08:04:25;;;;;;;18.58;16.77;;;11.00;99.90;;;;;;4919553;29;20043;-76
2022/09/23 08:06:54;;;;;;;20.15;18.50;;;11.00;99.90;;;;;;4926770;29;20561;-76
2022/09/23 08:09:22;;;;;;;19.02;17.42;;;11.10;99.90;;;;;;4907559;29;20050;-76
2022/09/23 08:11:49;;;;;;;19.25;17.65;;;11.20;99.90;;;;;;4918331;29;20190;-76
2022/09/23 08:14:17;;;;;;;20.38;18.38;;;11.20;99.90;;;;;;4919938;29;20051;-76
2022/09/23 08:16:45;;;;;;;19.55;17.67;;;11.30;99.90;;;;;;4918742;29;20051;-76
2022/09/23 08:19:12;;;;;;;18.70;16.88;;;11.40;99.90;;;;;;4922787;29;20065;-76
2022/09/23 08:21:39;;;;;;;18.58;16.92;;;11.40;99.90;;;;;;4932613;28;20357;-76
2022/09/23 08:24:07;;;;;;;18.23;16.58;;;11.50;99.90;;;;;;4903998;29;20055;-77
2022/09/23 08:26:33;;;;;;;18.25;16.55;;;11.50;99.90;;;;;;4937607;28;20061;-76
2022/09/23 08:29:02;;;;;;;16.83;15.32;;;11.60;99.90;;;;;;4899780;29;20035;-76
2022/09/23 08:31:28;;;;;;;17.35;15.85;;;11.70;99.90;;;;;;4905980;29;20036;-76
2022/09/23 08:33:55;;;;;;;17.58;16.15;;;11.70;99.90;;;;;;4917795;29;20043;-76
2022/09/23 08:36:22;;;;;;;17.08;15.48;;;11.80;99.90;;;;;;4929245;28;20051;-76
2022/09/23 08:38:48;;;;;;;17.30;15.75;;;11.80;99.90;;;;;;4904178;29;20036;-76
2022/09/23 08:41:43;;;;;;;17.40;15.90;;;11.90;99.90;;;;;;4930908;28;20057;-76
2022/09/23 08:44:25;;;;;;;17.35;15.65;;;12.00;99.90;;;;;;4906354;29;20067;-75
2022/09/23 08:47:11;;;;;;;18.80;17.20;;;12.10;99.90;;;;;;4922380;28;20043;-75
2022/09/23 08:49:53;;;;;;;16.80;15.40;;;12.10;99.90;;;;;;4918886;29;20056;-76
2022/09/23 08:52:34;;;;;;;18.45;15.57;;;12.20;99.90;;;;;;4933201;28;20051;-75
2022/09/23 08:55:01;;;;;;;17.58;15.85;;;12.30;99.90;;;;;;4932787;28;20059;-75
2022/09/23 08:57:57;;;;;;;16.90;15.50;;;12.30;99.90;;;;;;4911582;29;20046;-77
2022/09/23 09:00:29;;;;;;;17.55;15.85;;;12.40;99.90;;;;;;4932152;28;20040;-77
2022/09/23 09:02:55;;;;;;;17.15;15.75;;;12.50;99.90;;;;;;4921528;29;21209;-76
2022/09/23 09:05:27;;;;;;;16.70;15.25;;;12.60;99.90;;;;;;4892638;29;20561;-76
2022/09/23 09:07:57;;;;;;;16.75;15.10;;;12.70;99.90;;;;;;4919167;28;20055;-76
2022/09/23 09:10:34;;;;;;;16.38;14.88;;;12.80;99.90;;;;;;4931710;28;20049;-76
2022/09/23 09:13:08;;;;;;;16.30;14.90;;;12.80;99.90;;;;;;4921144;29;20084;-76
2022/09/23 09:15:58;;;;;;;15.32;13.80;;;12.90;99.90;;;;;;4922692;29;20083;-76
2022/09/23 09:18:29;;;;;;;14.00;12.70;;;13.00;99.90;;;;;;4929938;29;20035;-76
2022/09/23 09:21:14;;;;;;;16.23;14.73;;;13.10;99.90;;;;;;4929500;29;20048;-76
2022/09/23 09:23:56;;;;;;;15.55;14.07;;;13.20;99.90;;;;;;4924503;28;20705;-76
2022/09/23 09:26:27;;;;;;;14.00;12.70;;;13.30;99.90;;;;;;4925684;29;20047;-76
2022/09/23 09:29:31;;;;;;;14.40;13.00;;;13.40;99.90;;;;;;4931233;29;20050;-78
2022/09/23 09:32:10;;;;;;;14.05;12.70;;;13.50;99.90;;;;;;4931691;29;20047;-76
2022/09/23 09:34:55;;;;;;;14.98;13.57;;;13.60;99.90;;;;;;4924711;29;20472;-76
2022/09/23 09:37:45;;;;;;;12.75;11.57;;;13.70;99.90;;;;;;4921658;29;20131;-76
2022/09/23 09:40:12;;;;;;;12.95;11.75;;;13.90;99.90;;;;;;4924158;29;20051;-76
2022/09/23 09:42:43;;;;;;;15.15;13.25;;;14.00;99.90;;;;;;4925648;29;20047;-76
2022/09/23 09:45:18;;;;;;;13.60;12.30;;;14.10;99.90;;;;;;4923428;29;20039;-76
2022/09/23 09:47:47;;;;;;;13.73;12.32;;;14.20;99.90;;;;;;4926315;29;20161;-76
2022/09/23 09:50:20;;;;;;;13.95;12.38;;;14.40;99.90;;;;;;4923685;29;20235;-76
2022/09/23 09:52:47;;;;;;;13.48;12.23;;;14.50;99.90;;;;;;4921636;28;20067;-77
2022/09/23 09:55:16;;;;;;;13.50;12.32;;;14.50;99.90;;;;;;4908681;29;20498;-77
2022/09/23 09:57:43;;;;;;;13.68;12.30;;;14.60;99.90;;;;;;4909458;28;20414;-76
2022/09/23 10:00:20;;;;;;;12.80;11.70;;;14.70;99.90;;;;;;4938073;28;20384;-76
2022/09/23 10:02:57;;;;;;;14.20;12.65;;;14.70;99.90;;;;;;4919469;28;20047;-77
2022/09/23 10:05:30;;;;;;;14.07;12.63;;;14.70;99.90;;;;;;4920496;28;20134;-76
2022/09/23 10:08:22;;;;;;;13.60;12.40;;;14.70;99.90;;;;;;4919372;29;20139;-77
2022/09/23 10:11:20;;;;;;;15.40;12.15;;;14.80;99.90;;;;;;4932946;28;20044;-76
2022/09/23 10:14:04;;;;;;;14.13;12.63;;;14.70;99.90;;;;;;4907065;29;20090;-77
2022/09/23 10:16:33;;;;;;;13.65;12.20;;;14.80;99.90;;;;;;4923882;29;20075;-77
2022/09/23 10:19:00;;;;;;;13.00;11.80;;;14.70;99.90;;;;;;4926527;29;20063;-77
2022/09/23 10:21:34;;;;;;;14.50;13.02;;;14.70;99.90;;;;;;4907125;29;20055;-78
2022/09/23 10:24:02;;;;;;;14.50;12.90;;;14.80;99.90;;;;;;4921271;29;20423;-77
2022/09/23 10:26:39;;;;;;;13.13;11.73;;;14.70;99.90;;;;;;4924531;28;20047;-77
2022/09/23 10:29:32;;;;;;;13.32;12.00;;;14.80;99.90;;;;;;4917276;29;20040;-77
2022/09/23 10:32:24;;;;;;;13.68;12.38;;;14.80;99.90;;;;;;4924510;28;20054;-78
2022/09/23 10:35:02;;;;;;;14.23;12.93;;;14.90;99.90;;;;;;4928349;29;20060;-78
2022/09/23 10:37:34;;;;;;;13.30;11.90;;;14.90;99.90;;;;;;4926615;29;20048;-78
2022/09/23 10:47:06;;;;;;;12.90;11.60;;;15.10;99.90;;;;;;4909245;28;20052;-79
2022/09/23 10:49:51;;;;;;;12.20;10.90;;;15.20;99.90;;;;;;4925982;29;20082;-78
2022/09/23 10:52:35;;;;;;;14.05;11.40;;;15.20;99.90;;;;;;4918911;29;20110;-78
2022/09/23 10:55:25;;;;;;;12.73;11.52;;;15.30;99.90;;;;;;4931235;29;20054;-78
2022/09/23 10:58:19;;;;;;;12.27;11.18;;;15.30;99.90;;;;;;4933655;28;20051;-78
2022/09/23 11:01:26;;;;;;;13.43;11.40;;;15.40;99.90;;;;;;4924311;29;20055;-78
2022/09/23 11:04:18;;;;;;;12.57;11.10;;;15.40;99.90;;;;;;4919664;29;20044;-78
2022/09/23 11:07:07;;;;;;;12.25;11.15;;;15.40;99.90;;;;;;4916696;29;20708;-77
2022/09/23 11:09:57;;;;;;;11.20;10.07;;;15.40;99.90;;;;;;4918421;29;20573;-78
2022/09/23 11:12:34;;;;;;;12.48;10.75;;;15.40;99.90;;;;;;4918666;29;20054;-77
2022/09/23 11:15:54;;;;;;;13.88;12.48;;;15.40;99.90;;;;;;4927460;29;20058;-78
2022/09/23 11:18:28;;;;;;;13.27;11.98;;;15.30;99.90;;;;;;4898799;29;20107;-78
2022/09/23 11:21:14;;;;;;;13.85;12.48;;;15.30;99.90;;;;;;4888610;29;20040;-77
2022/09/23 11:24:20;;;;;;;15.18;13.57;;;15.30;99.90;;;;;;4920278;29;20056;-77
2022/09/23 11:26:55;;;;;;;13.18;11.88;;;15.30;99.90;;;;;;4923069;29;20511;-77
2022/09/23 11:30:07;;;;;;;14.00;12.60;;;15.30;99.90;;;;;;4918110;28;20500;-77
2022/09/23 11:33:03;;;;;;;21.55;19.20;;;15.30;99.90;;;;;;4925100;28;20134;-77
2022/09/23 11:35:35;;;;;;;15.38;13.90;;;15.30;99.90;;;;;;4917140;29;20087;-78
2022/09/23 11:38:10;;;;;;;15.82;14.23;;;15.20;99.90;;;;;;4940623;28;20078;-77
2022/09/23 11:40:39;;;;;;;15.65;14.18;;;15.30;99.90;;;;;;4933858;28;20639;-77
2022/09/23 11:43:22;;;;;;;13.43;12.25;;;15.30;99.90;;;;;;4897394;29;20043;-77
2022/09/23 11:46:43;;;;;;;15.80;14.27;;;15.30;99.90;;;;;;4934122;28;20122;-77
2022/09/23 11:49:29;;;;;;;14.20;12.70;;;15.20;99.90;;;;;;4900151;29;20048;-78
2022/09/23 11:52:18;;;;;;;14.00;12.38;;;15.20;99.90;;;;;;4914501;29;20122;-77
2022/09/23 11:54:46;;;;;;;13.45;12.20;;;15.20;99.90;;;;;;4910935;29;20281;-77
2022/09/23 11:57:41;;;;;;;14.80;12.57;;;15.10;99.90;;;;;;4905258;28;20082;-77
2022/09/23 12:00:14;;;;;;;13.60;12.23;;;15.20;99.90;;;;;;4920843;29;20123;-77
2022/09/23 12:02:57;;;;;;;13.20;11.80;;;15.20;99.90;;;;;;4912343;29;20550;-77
2022/09/23 12:05:26;;;;;;;12.60;11.30;;;15.20;99.90;;;;;;4917301;28;20162;-77
2022/09/23 12:08:00;;;;;;;13.93;12.50;;;15.20;99.90;;;;;;4935288;28;20501;-77
2022/09/23 12:10:56;;;;;;;14.30;13.00;;;15.20;99.90;;;;;;4924313;28;20059;-77
2022/09/23 12:13:47;;;;;;;15.73;14.32;;;15.20;99.90;;;;;;4925089;29;20142;-77
2022/09/23 12:16:41;;;;;;;16.13;14.52;;;15.30;99.90;;;;;;4934619;28;20370;-77
2022/09/23 12:19:29;;;;;;;13.15;11.95;;;15.30;99.90;;;;;;4920456;28;20072;-78
2022/09/23 12:22:19;;;;;;;15.27;13.77;;;15.30;99.90;;;;;;4917286;29;20146;-78
2022/09/23 12:25:16;;;;;;;14.38;13.07;;;15.40;99.90;;;;;;4918903;29;20553;-77
2022/09/23 12:27:47;;;;;;;16.20;14.52;;;15.30;99.90;;;;;;4926526;29;20387;-77
2022/09/23 12:30:26;;;;;;;17.17;15.57;;;15.40;99.90;;;;;;4923280;28;20047;-77
2022/09/23 12:33:05;;;;;;;16.05;14.35;;;15.40;99.90;;;;;;4917259;29;20584;-77
2022/09/23 12:35:38;;;;;;;17.88;16.10;;;15.40;99.90;;;;;;4908428;29;20147;-77
2022/09/23 12:38:19;;;;;;;17.13;15.52;;;15.40;99.90;;;;;;4907707;29;20084;-77
2022/09/23 12:40:46;;;;;;;16.48;14.88;;;15.40;99.90;;;;;;4909234;29;20047;-77
2022/09/23 12:43:30;;;;;;;13.90;12.65;;;15.40;99.90;;;;;;4905881;28;20118;-77
2022/09/23 12:46:28;;;;;;;16.08;14.50;;;15.40;99.90;;;;;;4922953;29;20083;-78
2022/09/23 12:48:57;;;;;;;15.18;13.75;;;15.50;99.90;;;;;;4893317;29;20581;-77
2022/09/23 12:51:24;;;;;;;16.10;14.60;;;15.50;99.90;;;;;;4927950;28;20043;-78
2022/09/23 12:54:03;;;;;;;17.02;15.10;;;15.50;99.90;;;;;;4925258;29;20068;-77
2022/09/23 12:56:35;;;;;;;15.73;14.27;;;15.50;99.90;;;;;;4922830;28;20087;-78
2022/09/23 12:59:15;;;;;;;17.90;16.10;;;15.60;99.90;;;;;;4934273;29;20253;-78
2022/09/23 13:01:41;;;;;;;16.55;15.05;;;15.60;99.90;;;;;;4923124;29;20554;-78
2022/09/23 13:07:26;;;;;;;18.05;16.23;;;15.60;99.90;;;;;;4939120;28;20498;-78
2022/09/23 13:10:07;;;;;;;16.83;15.25;;;15.60;99.90;;;;;;4933317;28;20426;-77
2022/09/23 13:12:38;;;;;;;17.08;15.32;;;15.60;99.90;;;;;;4937641;28;20052;-77
2022/09/23 13:15:15;;;;;;;15.80;14.40;;;15.70;99.90;;;;;;4934853;28;20546;-77
2022/09/23 13:17:41;;;;;;;15.82;14.30;;;15.70;99.90;;;;;;4909057;29;20118;-77